Time;durP1;ratioP1;P1;durP2;ratioP2;P2;SDS_P1;SDS_P2;PMS_P1;PMS_P2;Temp;Humidity;BMP_temperature;BMP_pressure;BME280_temperature;BME280_humidity;BME280_pressure;Samples;Min_cycle;Max_cycle;Signal;HPM_P1;HPM_P2
2022/01/09 00:00:43;;;;;;;192.32;160.85;;;;;;;15.39;32.66;92027.97;4966692;28;20058;-65
2022/01/09 00:03:09;;;;;;;196.60;164.27;;;;;;;15.40;32.68;92018.66;4965488;28;20074;-65
2022/01/09 00:05:36;;;;;;;193.40;161.02;;;;;;;15.40;32.72;92009.84;4968056;28;20042;-65
2022/01/09 00:08:02;;;;;;;198.10;163.95;;;;;;;15.37;32.70;92003.47;4968908;28;20052;-65
2022/01/09 00:10:30;;;;;;;194.27;162.75;;;;;;;15.37;32.60;92008.84;4970367;28;20058;-65
2022/01/09 00:12:56;;;;;;;193.98;160.00;;;;;;;15.37;32.49;92003.47;4966298;28;20050;-65
2022/01/09 00:15:21;;;;;;;203.88;168.60;;;;;;;15.36;32.53;91996.59;4965277;28;20034;-65
2022/01/09 00:17:47;;;;;;;191.82;159.02;;;;;;;15.37;32.44;91991.97;4989365;28;20066;-65
2022/01/09 00:20:13;;;;;;;192.77;161.13;;;;;;;15.38;32.56;91986.09;4964223;28;20336;-65
2022/01/09 00:22:45;;;;;;;188.63;157.57;;;;;;;15.38;32.54;91993.44;4965942;28;20050;-65
2022/01/09 00:25:12;;;;;;;204.90;170.10;;;;;;;15.38;32.65;91988.78;4961234;28;21445;-65
2022/01/09 00:27:37;;;;;;;198.88;166.75;;;;;;;15.38;32.53;91979.97;4963383;28;20053;-65
2022/01/09 00:30:09;;;;;;;194.15;162.00;;;;;;;15.37;32.76;91976.53;4971632;28;20959;-65
2022/01/09 00:32:34;;;;;;;198.27;166.18;;;;;;;15.36;32.65;91980.44;4964560;28;20043;-65
2022/01/09 00:35:00;;;;;;;200.82;167.75;;;;;;;15.36;32.77;91961.59;4966311;28;20062;-65
2022/01/09 00:37:25;;;;;;;192.75;161.38;;;;;;;15.36;32.77;91963.56;4966560;28;20046;-65
2022/01/09 00:39:52;;;;;;;198.25;163.60;;;;;;;15.35;32.80;91968.19;4962008;28;20495;-65
2022/01/09 00:42:18;;;;;;;192.52;161.65;;;;;;;15.36;32.58;91960.84;4963358;28;21069;-65
2022/01/09 00:44:44;;;;;;;195.57;162.85;;;;;;;15.37;32.73;91965.03;4963557;28;20654;-65
2022/01/09 00:47:10;;;;;;;190.95;158.85;;;;;;;15.36;32.79;91966.97;4963102;28;20130;-65
2022/01/09 00:49:35;;;;;;;194.48;163.40;;;;;;;15.36;32.75;91950.81;4959991;28;20055;-65
2022/01/09 00:52:01;;;;;;;194.98;162.90;;;;;;;15.36;32.78;91948.13;4962459;28;20050;-65
2022/01/09 00:54:27;;;;;;;196.27;164.60;;;;;;;15.37;32.83;91946.16;4964125;28;20035;-65
2022/01/09 00:56:52;;;;;;;195.25;163.00;;;;;;;15.36;32.88;91934.66;4963625;28;20762;-65
2022/01/09 00:59:18;;;;;;;198.23;164.63;;;;;;;15.37;32.89;91938.09;4965964;28;20105;-65
2022/01/09 01:01:43;;;;;;;206.50;170.98;;;;;;;15.35;33.07;91933.19;4961910;28;20154;-65
2022/01/09 01:04:09;;;;;;;188.52;156.10;;;;;;;15.36;33.11;91934.66;4963359;28;20054;-65
2022/01/09 01:06:35;;;;;;;197.38;164.23;;;;;;;15.36;33.10;91944.69;4961905;28;20095;-65
2022/01/09 01:09:00;;;;;;;199.45;167.27;;;;;;;15.35;32.98;91919.72;4961288;28;20063;-65
2022/01/09 01:11:26;;;;;;;193.85;160.73;;;;;;;15.35;33.06;91927.81;4969455;28;20057;-65
2022/01/09 01:13:51;;;;;;;194.48;161.52;;;;;;;15.35;33.03;91919.72;4968661;28;20039;-65
2022/01/09 01:16:17;;;;;;;198.48;164.63;;;;;;;15.35;33.05;91902.84;4975086;28;20055;-65
2022/01/09 01:18:44;;;;;;;189.85;158.93;;;;;;;15.35;33.24;91903.56;4966141;28;20047;-65
2022/01/09 01:21:10;;;;;;;192.93;161.07;;;;;;;15.36;33.24;91915.06;4967250;28;20050;-65
2022/01/09 01:23:36;;;;;;;198.95;165.00;;;;;;;15.36;33.07;91910.44;4968091;28;20042;-65
2022/01/09 01:26:02;;;;;;;190.48;158.75;;;;;;;15.36;33.23;91915.06;4967561;28;20447;-65
2022/01/09 01:28:29;;;;;;;195.70;161.27;;;;;;;15.35;33.19;91919.72;4968185;28;20184;-65
2022/01/09 01:30:54;;;;;;;196.32;160.48;;;;;;;15.33;33.27;91927.56;4967767;28;20083;-65
2022/01/09 01:33:20;;;;;;;194.85;163.52;;;;;;;15.35;33.32;91935.16;4967516;28;20145;-65
2022/01/09 01:35:45;;;;;;;194.88;161.35;;;;;;;15.34;33.07;91941.75;4967694;28;20051;-65
2022/01/09 01:38:11;;;;;;;191.55;160.55;;;;;;;15.35;33.23;91956.69;4967369;28;20061;-65
2022/01/09 01:40:37;;;;;;;194.73;161.40;;;;;;;15.35;33.25;91959.38;4966167;28;20039;-65
2022/01/09 01:43:03;;;;;;;193.00;160.30;;;;;;;15.34;33.29;91947.88;4969823;28;20055;-65
2022/01/09 01:45:28;;;;;;;194.68;161.70;;;;;;;15.33;33.24;91946.41;4967893;28;20057;-65
2022/01/09 01:47:54;;;;;;;195.30;160.60;;;;;;;15.31;33.23;91948.84;4975813;28;20503;-65
2022/01/09 01:50:20;;;;;;;205.35;169.63;;;;;;;15.32;33.06;91955.72;4969402;28;20451;-65
2022/01/09 01:52:50;;;;;;;206.18;170.70;;;;;;;15.32;33.18;91961.09;4967810;28;20062;-65
2022/01/09 01:55:17;;;;;;;201.85;167.75;;;;;;;15.31;33.21;91970.41;4972207;28;20057;-65
2022/01/09 01:57:44;;;;;;;204.70;169.95;;;;;;;15.30;33.13;91979.69;4964314;28;20128;-65
2022/01/09 02:00:13;;;;;;;195.52;161.68;;;;;;;15.29;33.12;91972.84;4963032;28;20055;-65
2022/01/09 02:02:38;;;;;;;200.02;162.85;;;;;;;15.29;33.07;91975.53;4969095;28;20069;-65
2022/01/09 02:05:05;;;;;;;204.43;168.38;;;;;;;15.30;32.95;91973.56;4970656;28;20419;-65
2022/01/09 02:07:31;;;;;;;197.18;162.02;;;;;;;15.29;33.15;91966.72;4973062;28;20043;-65
2022/01/09 02:09:57;;;;;;;193.32;159.23;;;;;;;15.29;32.95;91964.03;4970723;28;20495;-65
2022/01/09 02:12:23;;;;;;;196.75;164.55;;;;;;;15.28;32.93;91960.59;4968661;28;20043;-65
2022/01/09 02:14:48;;;;;;;200.63;165.85;;;;;;;15.29;33.08;91967.44;4965442;28;20055;-65
2022/01/09 02:17:19;;;;;;;193.13;160.10;;;;;;;15.29;32.99;91964.03;4967589;28;20479;-65
2022/01/09 02:19:51;;;;;;;191.65;158.30;;;;;;;15.28;33.15;91960.59;4970939;28;20050;-65
2022/01/09 02:22:17;;;;;;;194.73;158.55;;;;;;;15.27;33.07;91951.03;4972893;28;20046;-65
2022/01/09 02:24:43;;;;;;;192.90;160.45;;;;;;;15.27;33.02;91948.34;4970233;28;20069;-65
2022/01/09 02:27:09;;;;;;;196.27;163.55;;;;;;;15.27;33.13;91942.97;4968008;28;20372;-65
2022/01/09 02:29:35;;;;;;;189.02;154.02;;;;;;;15.25;32.94;91942.72;4966672;28;20051;-65
2022/01/09 02:32:00;;;;;;;194.65;160.77;;;;;;;15.26;33.07;91938.06;4972018;28;20440;-65
2022/01/09 02:34:26;;;;;;;192.85;159.00;;;;;;;15.26;33.08;91932.69;4964492;28;20077;-65
2022/01/09 02:36:51;;;;;;;199.43;166.15;;;;;;;15.24;33.03;91916.28;4968401;28;20055;-65
2022/01/09 02:39:17;;;;;;;199.35;164.48;;;;;;;15.24;32.82;91919.69;4967731;28;20046;-65
2022/01/09 02:41:42;;;;;;;198.48;162.50;;;;;;;15.23;32.83;91920.91;4966456;28;20050;-65
2022/01/09 02:44:10;;;;;;;204.48;169.35;;;;;;;15.24;32.86;91910.88;4964592;28;20058;-65
2022/01/09 02:46:51;;;;;;;198.60;165.32;;;;;;;15.24;32.80;91911.63;4967830;28;20038;-65
2022/01/09 02:49:17;;;;;;;191.82;158.80;;;;;;;15.25;32.86;91898.88;4966162;28;20061;-65
2022/01/09 02:51:45;;;;;;;196.55;162.75;;;;;;;15.24;32.93;91894.72;4971360;28;20038;-65
2022/01/09 02:56:55;;;;;;;192.45;158.45;;;;;;;15.23;32.96;91893.25;4967213;28;20054;-65
2022/01/09 02:59:20;;;;;;;193.85;159.38;;;;;;;15.24;32.96;91894.72;4963793;28;20507;-65
2022/01/09 03:01:46;;;;;;;192.68;158.85;;;;;;;15.20;33.38;91878.81;4966911;28;20050;-65
2022/01/09 03:04:11;;;;;;;200.73;164.70;;;;;;;15.24;33.06;91865.09;4968403;28;20058;-65
2022/01/09 03:06:37;;;;;;;193.35;158.35;;;;;;;15.22;33.00;91854.81;4966009;28;20057;-65
2022/01/09 03:09:05;;;;;;;190.90;157.82;;;;;;;15.22;33.23;91852.13;4965830;28;20832;-65
2022/01/09 03:11:31;;;;;;;198.90;165.53;;;;;;;15.21;33.25;91836.47;4968615;28;20046;-65
2022/01/09 03:13:57;;;;;;;193.48;161.02;;;;;;;15.22;33.23;91848.72;4966555;28;20458;-65
2022/01/09 03:16:23;;;;;;;194.13;161.45;;;;;;;15.21;33.24;91833.78;4969483;28;20046;-65
2022/01/09 03:18:48;;;;;;;192.65;158.70;;;;;;;15.19;33.35;91831.56;4968683;28;20511;-65
2022/01/09 03:21:14;;;;;;;194.43;162.10;;;;;;;15.20;33.31;91830.34;4970858;28;20137;-65
2022/01/09 03:23:39;;;;;;;195.18;160.35;;;;;;;15.20;33.36;91822.28;4964505;28;20137;-65
2022/01/09 03:26:08;;;;;;;194.85;160.77;;;;;;;15.19;33.17;91810.03;4968313;28;20117;-65
2022/01/09 03:28:35;;;;;;;192.80;158.13;;;;;;;15.19;33.24;91804.66;4969047;28;20499;-65
2022/01/09 03:31:00;;;;;;;191.85;159.50;;;;;;;15.20;33.23;91805.38;4966908;28;20065;-65
2022/01/09 03:33:26;;;;;;;201.13;164.30;;;;;;;15.20;33.32;91800.00;4963760;28;20495;-65
2022/01/09 03:35:51;;;;;;;193.68;159.70;;;;;;;15.18;33.38;91805.88;4965464;28;20222;-65
2022/01/09 03:38:17;;;;;;;193.50;158.40;;;;;;;15.20;33.28;91813.47;4964773;28;20065;-65
2022/01/09 03:40:42;;;;;;;190.02;155.93;;;;;;;15.19;33.26;91815.41;4963352;28;20751;-66
2022/01/09 03:43:08;;;;;;;190.68;157.70;;;;;;;15.18;33.24;91813.94;4965063;28;20058;-65
2022/01/09 03:45:33;;;;;;;188.68;155.70;;;;;;;15.19;33.19;91803.91;4968378;28;20054;-65
2022/01/09 03:47:59;;;;;;;188.80;156.07;;;;;;;15.19;33.24;91814.69;4963411;28;20042;-65
2022/01/09 03:50:25;;;;;;;188.98;155.55;;;;;;;15.18;33.19;91816.63;4969185;28;20053;-65
2022/01/09 03:52:51;;;;;;;202.43;165.90;;;;;;;15.19;33.38;91831.56;4967830;28;20097;-65
2022/01/09 03:55:19;;;;;;;204.73;167.30;;;;;;;15.18;33.33;91815.91;4966984;28;20050;-65
2022/01/09 03:57:46;;;;;;;201.95;166.02;;;;;;;15.19;33.22;91820.06;4966934;28;20042;-65
2022/01/09 04:00:15;;;;;;;193.88;160.82;;;;;;;15.19;33.29;91838.91;4967288;28;20069;-65
2022/01/09 04:02:42;;;;;;;194.18;160.00;;;;;;;15.18;33.22;91851.63;4964797;28;20043;-65
2022/01/09 04:05:08;;;;;;;211.35;173.07;;;;;;;15.18;33.11;91842.81;4967055;28;20069;-65
2022/01/09 04:07:34;;;;;;;188.90;155.38;;;;;;;15.18;33.01;91853.59;4966461;28;20082;-65
2022/01/09 04:10:00;;;;;;;200.07;163.40;;;;;;;15.18;33.18;91861.66;4965037;28;21773;-65
2022/01/09 04:12:36;;;;;;;192.68;158.98;;;;;;;15.17;33.25;91866.31;4966761;28;20531;-65
2022/01/09 04:15:07;;;;;;;200.18;162.20;;;;;;;15.16;33.26;91892.50;4973137;28;20106;-65
2022/01/09 04:20:09;;;;;;;195.45;160.40;;;;;;;15.17;33.01;91869.00;4968355;28;20051;-65
2022/01/09 04:22:35;;;;;;;192.57;159.75;;;;;;;15.18;33.26;91875.13;4966053;28;20117;-65
2022/01/09 04:25:00;;;;;;;199.27;165.32;;;;;;;15.15;33.08;91882.97;4961546;28;20609;-65
2022/01/09 04:27:26;;;;;;;209.57;171.18;;;;;;;15.17;33.11;91877.09;4962228;28;20112;-65
2022/01/09 04:29:52;;;;;;;194.25;159.63;;;;;;;15.17;33.15;91879.78;4963333;28;20050;-65
2022/01/09 04:32:17;;;;;;;193.10;159.68;;;;;;;15.14;33.08;91880.75;4968060;28;20099;-65
2022/01/09 04:34:43;;;;;;;206.50;169.80;;;;;;;15.15;33.21;91896.41;4964487;28;20046;-65
2022/01/09 04:37:08;;;;;;;200.35;164.68;;;;;;;15.14;33.40;91894.94;4962295;28;20045;-65
2022/01/09 04:39:34;;;;;;;193.23;159.55;;;;;;;15.15;33.00;91903.75;4966310;28;20522;-65
2022/01/09 04:41:59;;;;;;;196.90;161.10;;;;;;;15.14;33.02;91883.44;4964387;28;20061;-65
2022/01/09 04:44:25;;;;;;;190.35;157.73;;;;;;;15.14;33.12;91897.66;4961440;28;20059;-65
2022/01/09 04:46:57;;;;;;;193.23;157.90;;;;;;;15.14;32.99;91886.13;4964213;28;20137;-65
2022/01/09 04:49:26;;;;;;;192.63;159.57;;;;;;;15.14;32.94;91878.06;4963522;28;22073;-65
2022/01/09 04:51:53;;;;;;;191.43;157.43;;;;;;;15.15;33.02;91876.84;4965478;28;20053;-65
2022/01/09 04:54:18;;;;;;;202.98;167.20;;;;;;;15.16;32.99;91876.34;4965637;28;20419;-65
2022/01/09 04:56:44;;;;;;;193.35;158.10;;;;;;;15.16;33.00;91879.03;4964405;28;21282;-65
2022/01/09 04:59:09;;;;;;;195.60;159.63;;;;;;;15.15;33.00;91880.25;4967177;28;20549;-65
2022/01/09 05:01:35;;;;;;;188.55;156.32;;;;;;;15.16;33.14;91892.50;4965850;28;20043;-65
2022/01/09 05:04:00;;;;;;;196.55;160.88;;;;;;;15.14;32.99;91873.41;4966249;28;20057;-65
2022/01/09 05:06:26;;;;;;;193.30;159.50;;;;;;;15.14;32.99;91873.41;4966809;28;20338;-65
2022/01/09 05:08:51;;;;;;;198.73;164.20;;;;;;;15.16;33.03;91881.00;4963466;28;20875;-65
2022/01/09 05:11:17;;;;;;;197.48;162.55;;;;;;;15.16;33.10;91876.34;4967851;28;20232;-65
2022/01/09 05:13:42;;;;;;;194.63;159.93;;;;;;;15.15;32.90;91888.34;4965953;28;20109;-65
2022/01/09 05:16:08;;;;;;;193.10;157.70;;;;;;;15.18;32.94;91893.97;4965668;28;20130;-65
2022/01/09 05:18:50;;;;;;;189.60;156.88;;;;;;;15.17;32.96;91912.09;4963068;28;20832;-65
2022/01/09 05:21:16;;;;;;;193.05;158.60;;;;;;;15.13;32.75;91916.97;4961433;28;20146;-65
2022/01/09 05:23:42;;;;;;;202.60;166.15;;;;;;;15.14;32.81;91913.78;4963453;28;20066;-65
2022/01/09 05:26:08;;;;;;;194.38;161.10;;;;;;;15.15;32.87;91919.91;4963201;28;20054;-65
2022/01/09 05:28:33;;;;;;;190.25;156.13;;;;;;;15.18;32.38;91927.03;4962467;28;20731;-65
2022/01/09 05:30:59;;;;;;;192.38;160.35;;;;;;;15.18;32.68;91920.91;4966104;28;20434;-65
2022/01/09 05:33:24;;;;;;;204.40;167.88;;;;;;;15.19;32.71;91946.59;4961083;28;20043;-65
2022/01/09 05:35:50;;;;;;;195.30;160.90;;;;;;;15.20;32.74;91929.22;4963624;28;20046;-65
2022/01/09 05:38:18;;;;;;;193.05;160.20;;;;;;;15.18;32.73;91929.72;4962862;28;20065;-65
2022/01/09 05:40:44;;;;;;;198.60;163.45;;;;;;;15.18;32.82;91940.47;4966108;28;20149;-65
2022/01/09 05:43:10;;;;;;;192.85;159.25;;;;;;;15.20;32.65;91953.47;4962941;28;20054;-65
2022/01/09 05:45:36;;;;;;;200.60;163.90;;;;;;;15.20;32.60;91932.66;4968415;28;20487;-65
2022/01/09 05:48:02;;;;;;;195.95;162.65;;;;;;;15.22;32.69;91934.88;4961264;28;20042;-65
2022/01/09 05:50:27;;;;;;;191.82;158.77;;;;;;;15.22;32.60;91951.75;4967995;28;20802;-65
2022/01/09 05:52:53;;;;;;;197.73;163.48;;;;;;;15.22;32.66;91948.31;4966243;28;20050;-65
2022/01/09 05:55:19;;;;;;;203.73;169.18;;;;;;;15.23;32.51;91964.00;4964164;28;20108;-65
2022/01/09 05:57:44;;;;;;;201.65;164.35;;;;;;;15.23;32.56;91934.38;4960649;28;20046;-65
2022/01/09 06:00:10;;;;;;;203.07;166.85;;;;;;;15.24;32.68;91959.34;4962961;28;20050;-65
2022/01/09 06:02:36;;;;;;;191.45;159.60;;;;;;;15.26;32.63;91959.59;4971210;28;20742;-65
2022/01/09 06:05:01;;;;;;;203.65;168.95;;;;;;;15.27;32.56;91945.66;4967844;28;20104;-65
2022/01/09 06:07:27;;;;;;;193.55;160.20;;;;;;;15.28;32.38;91973.31;4969470;28;20065;-65
2022/01/09 06:09:53;;;;;;;193.65;161.10;;;;;;;15.28;32.53;91963.28;4970170;28;20054;-65
2022/01/09 06:12:18;;;;;;;199.00;164.18;;;;;;;15.28;32.54;91952.50;4969779;28;20054;-65
2022/01/09 06:14:44;;;;;;;190.63;157.43;;;;;;;15.30;32.41;91957.41;4967036;28;20941;-65
2022/01/09 06:17:09;;;;;;;202.57;166.57;;;;;;;15.29;32.60;91962.06;4971327;28;20134;-65
2022/01/09 06:19:35;;;;;;;196.15;160.80;;;;;;;15.31;32.45;91989.25;4971387;28;20046;-65
2022/01/09 06:22:01;;;;;;;192.00;158.15;;;;;;;15.32;32.43;91998.06;4967497;28;20522;-65
2022/01/09 06:24:27;;;;;;;199.20;165.70;;;;;;;15.31;32.55;91983.84;4968338;28;20042;-65
2022/01/09 06:26:52;;;;;;;194.27;160.82;;;;;;;15.32;32.55;91987.28;4967397;28;20576;-65
2022/01/09 06:29:19;;;;;;;196.93;164.50;;;;;;;15.33;32.53;91986.81;4962127;28;20042;-65
2022/01/09 06:31:45;;;;;;;197.35;163.90;;;;;;;15.30;32.53;92001.25;4965543;28;20043;-65
2022/01/09 06:34:13;;;;;;;195.60;162.68;;;;;;;15.31;32.46;91996.59;4965996;28;20053;-65
2022/01/09 06:36:40;;;;;;;194.20;161.35;;;;;;;15.29;32.34;91999.03;4966023;28;20451;-65
2022/01/09 06:39:06;;;;;;;190.82;158.70;;;;;;;15.29;32.37;92007.09;4964720;28;20124;-65
2022/01/09 06:41:32;;;;;;;192.07;158.68;;;;;;;15.29;32.47;92015.91;4966827;28;20471;-65
2022/01/09 06:43:58;;;;;;;193.93;160.52;;;;;;;15.30;32.37;92025.47;4966185;28;20061;-65
2022/01/09 06:46:25;;;;;;;191.43;158.48;;;;;;;15.28;32.27;92037.94;4967560;28;20050;-66
2022/01/09 06:48:51;;;;;;;188.75;157.43;;;;;;;15.26;32.45;91987.25;4969747;28;20049;-65
2022/01/09 06:51:17;;;;;;;203.50;167.35;;;;;;;15.24;32.51;92040.13;4965911;28;20108;-65
2022/01/09 06:53:42;;;;;;;199.50;165.20;;;;;;;15.27;32.65;92036.47;4965340;28;20046;-65
2022/01/09 06:56:08;;;;;;;194.23;162.98;;;;;;;15.27;32.78;92026.44;4966555;28;20053;-65
2022/01/09 06:58:36;;;;;;;200.95;167.80;;;;;;;15.28;32.38;92043.34;4965281;28;20050;-65
2022/01/09 07:01:04;;;;;;;189.63;157.00;;;;;;;15.31;32.97;92053.88;4989396;28;20046;-65
2022/01/09 07:03:29;;;;;;;195.23;161.55;;;;;;;15.31;32.79;92053.13;4967278;28;20082;-65
2022/01/09 07:05:55;;;;;;;193.75;161.82;;;;;;;15.31;32.83;92069.28;4963994;28;20423;-65
2022/01/09 07:08:21;;;;;;;201.90;166.70;;;;;;;15.32;32.82;92079.59;4967300;28;20495;-65
2022/01/09 07:10:46;;;;;;;199.73;165.70;;;;;;;15.31;32.96;92077.38;4965096;28;20435;-65
2022/01/09 07:13:12;;;;;;;191.07;157.88;;;;;;;15.31;32.89;92056.56;4969428;28;20125;-65
2022/01/09 07:15:38;;;;;;;201.23;165.05;;;;;;;15.32;32.81;92090.34;4964443;28;20046;-65
2022/01/09 07:18:03;;;;;;;202.98;169.55;;;;;;;15.32;32.96;92093.06;4969305;28;20069;-65
2022/01/09 07:20:29;;;;;;;193.25;159.43;;;;;;;15.34;32.94;92098.69;4967876;28;20490;-65
2022/01/09 07:22:54;;;;;;;193.90;162.65;;;;;;;15.31;33.10;92099.66;4966404;28;20046;-65
2022/01/09 07:25:20;;;;;;;200.35;166.63;;;;;;;15.34;33.25;92119.50;4966565;28;20117;-65
2022/01/09 07:27:46;;;;;;;200.57;167.43;;;;;;;15.34;32.91;92120.25;4969369;28;20101;-65
2022/01/09 07:30:11;;;;;;;199.57;166.55;;;;;;;15.36;33.35;92114.38;4960373;28;20078;-65
2022/01/09 07:32:37;;;;;;;206.05;172.40;;;;;;;15.36;33.12;92117.06;4964894;28;20035;-65
2022/01/09 07:35:04;;;;;;;200.80;168.13;;;;;;;15.35;33.08;92137.88;4968679;28;20047;-65
2022/01/09 07:37:30;;;;;;;195.60;162.23;;;;;;;15.37;33.26;92151.59;4965338;28;20178;-65
2022/01/09 07:39:58;;;;;;;202.00;168.82;;;;;;;15.39;33.29;92145.72;4964843;28;20042;-65
2022/01/09 07:42:24;;;;;;;211.73;175.60;;;;;;;15.41;33.16;92162.16;4960051;28;20058;-65
2022/01/09 07:44:50;;;;;;;200.13;167.95;;;;;;;15.40;33.29;92158.72;4961844;28;20491;-65
2022/01/09 07:47:15;;;;;;;193.50;162.95;;;;;;;15.39;33.12;92156.50;4970388;28;20042;-65
2022/01/09 07:49:41;;;;;;;191.32;161.50;;;;;;;15.35;33.31;92167.50;4967258;28;20038;-65
2022/01/09 07:52:07;;;;;;;195.32;162.82;;;;;;;15.36;33.24;92181.69;4966728;28;20050;-65
2022/01/09 07:54:32;;;;;;;197.40;164.45;;;;;;;15.36;33.12;92177.06;4968780;28;20054;-65
2022/01/09 07:56:58;;;;;;;196.35;164.65;;;;;;;15.36;33.32;92189.78;4967184;28;20061;-65
2022/01/09 07:59:23;;;;;;;192.32;161.73;;;;;;;15.37;33.21;92196.66;4966320;28;20407;-65
2022/01/09 08:01:50;;;;;;;193.55;163.40;;;;;;;15.39;33.31;92191.53;4968089;28;20089;-65
2022/01/09 08:04:16;;;;;;;196.63;163.05;;;;;;;15.37;33.27;92200.06;4967372;28;20054;-65
2022/01/09 08:06:41;;;;;;;198.68;167.23;;;;;;;15.40;33.30;92193.72;4986689;28;20056;-66
2022/01/09 08:09:07;;;;;;;205.55;172.40;;;;;;;15.38;33.25;92212.34;4965554;28;20059;-65
2022/01/09 08:11:33;;;;;;;190.20;160.05;;;;;;;15.38;33.33;92216.97;4968246;28;20054;-65
2022/01/09 08:13:58;;;;;;;192.15;163.20;;;;;;;15.39;33.20;92215.75;4965083;28;20809;-65
2022/01/09 08:16:24;;;;;;;195.52;164.68;;;;;;;15.38;33.29;92206.94;4968415;28;20062;-65
2022/01/09 08:18:51;;;;;;;195.38;165.82;;;;;;;15.40;33.21;92215.28;4966128;28;20042;-65
2022/01/09 08:21:19;;;;;;;191.75;161.15;;;;;;;15.40;33.18;92219.94;4966020;28;20433;-65
2022/01/09 08:23:49;;;;;;;194.73;163.23;;;;;;;15.41;33.17;92224.84;4967007;28;20062;-65
2022/01/09 08:26:15;;;;;;;192.02;161.15;;;;;;;15.42;33.17;92228.28;4967961;28;20165;-63
2022/01/09 08:28:44;;;;;;;190.20;159.55;;;;;;;15.42;33.30;92234.41;4967417;28;20109;-66
2022/01/09 08:31:12;;;;;;;205.70;171.70;;;;;;;15.39;33.22;92240.75;4958361;28;20049;-65
2022/01/09 08:33:38;;;;;;;193.48;161.10;;;;;;;15.40;33.08;92241.47;4964897;28;20054;-65
2022/01/09 08:36:04;;;;;;;196.43;164.38;;;;;;;15.39;33.32;92261.56;4967575;28;20443;-64
2022/01/09 08:38:30;;;;;;;190.75;159.88;;;;;;;15.40;33.21;92253.00;4967808;28;20089;-65
2022/01/09 08:40:56;;;;;;;190.82;160.43;;;;;;;15.41;33.23;92253.72;4969691;28;20163;-66
2022/01/09 08:43:22;;;;;;;196.32;165.13;;;;;;;15.38;33.13;92257.38;4965379;28;20447;-66
2022/01/09 08:45:47;;;;;;;199.48;167.55;;;;;;;15.37;33.11;92253.22;4967151;28;20058;-66
2022/01/09 08:48:14;;;;;;;195.98;163.88;;;;;;;15.37;33.14;92263.97;4966152;28;20113;-67
2022/01/09 08:50:39;;;;;;;198.95;166.50;;;;;;;15.33;33.16;92266.16;4963695;28;20145;-65
2022/01/09 08:53:05;;;;;;;191.48;159.35;;;;;;;15.33;33.28;92266.16;4967700;28;20297;-64
2022/01/09 08:55:31;;;;;;;191.60;160.48;;;;;;;15.37;33.18;92269.38;4967406;28;20093;-65
2022/01/09 08:57:57;;;;;;;189.30;156.57;;;;;;;15.40;33.15;92271.84;4966655;28;20062;-64
2022/01/09 09:00:23;;;;;;;194.25;163.45;;;;;;;15.36;33.29;92276.72;4969215;28;20133;-63
2022/01/09 09:02:49;;;;;;;187.27;156.57;;;;;;;15.36;32.99;92289.44;4967935;28;20046;-64
2022/01/09 09:05:15;;;;;;;192.13;159.73;;;;;;;15.39;33.24;92297.31;4967973;28;20061;-64
2022/01/09 09:07:40;;;;;;;196.23;165.60;;;;;;;15.40;33.18;92322.28;4969951;28;20073;-64
2022/01/09 09:10:08;;;;;;;190.77;158.85;;;;;;;15.41;33.18;92319.13;4970430;28;20046;-64
2022/01/09 09:12:35;;;;;;;188.50;159.98;;;;;;;15.44;33.17;92314.72;4967147;28;20129;-67
2022/01/09 09:15:05;;;;;;;196.95;165.98;;;;;;;15.42;33.01;92325.97;4966180;28;20057;-67
2022/01/09 09:17:32;;;;;;;190.50;160.90;;;;;;;15.42;33.15;92333.31;4972431;28;20077;-67
2022/01/09 09:19:58;;;;;;;196.50;164.48;;;;;;;15.41;33.24;92327.19;4965559;28;20106;-66
2022/01/09 09:22:23;;;;;;;195.13;162.95;;;;;;;15.42;33.21;92325.25;4968124;28;20446;-67
2022/01/09 09:24:50;;;;;;;193.38;162.18;;;;;;;15.40;33.13;92323.03;4968190;28;20042;-67
2022/01/09 09:27:15;;;;;;;197.27;165.30;;;;;;;15.40;33.25;92320.34;4968802;28;20097;-67
2022/01/09 09:29:41;;;;;;;191.25;159.88;;;;;;;15.39;33.16;92324.25;4965473;28;20035;-67
2022/01/09 09:32:07;;;;;;;194.10;161.73;;;;;;;15.37;33.20;92334.75;4969931;28;20142;-67
2022/01/09 09:34:34;;;;;;;193.15;161.98;;;;;;;15.42;33.05;92344.84;4967479;28;20066;-67
2022/01/09 09:37:00;;;;;;;192.82;161.70;;;;;;;15.43;33.07;92350.97;4969610;28;20128;-65
2022/01/09 09:39:26;;;;;;;200.60;167.98;;;;;;;15.46;33.14;92344.63;4970459;28;20050;-66
2022/01/09 09:41:51;;;;;;;196.15;165.50;;;;;;;15.42;33.08;92355.63;4967584;28;20085;-66
2022/01/09 09:44:17;;;;;;;199.63;168.75;;;;;;;15.40;33.09;92351.91;4973328;28;20061;-67
2022/01/09 09:46:49;;;;;;;194.35;163.15;;;;;;;15.39;33.08;92345.78;4969231;28;20039;-66
2022/01/09 09:49:15;;;;;;;191.52;160.25;;;;;;;15.41;33.05;92350.69;4969716;28;20051;-66
2022/01/09 09:51:41;;;;;;;194.75;164.35;;;;;;;15.42;32.95;92352.19;4966288;28;20129;-66
2022/01/09 09:54:07;;;;;;;194.00;161.55;;;;;;;15.45;32.97;92378.16;4967422;28;20069;-66
2022/01/09 09:56:32;;;;;;;193.65;162.55;;;;;;;15.46;33.00;92361.53;4969210;28;20042;-66
2022/01/09 09:58:59;;;;;;;193.23;163.30;;;;;;;15.46;32.81;92369.59;4966786;28;20066;-66
2022/01/09 10:01:30;;;;;;;196.23;164.77;;;;;;;15.49;33.13;92373.31;4991394;28;20046;-66
2022/01/09 10:04:02;;;;;;;189.45;160.48;;;;;;;15.48;33.04;92372.56;4965064;28;20043;-66
2022/01/09 10:06:37;;;;;;;193.32;163.93;;;;;;;15.47;33.03;92389.22;4976071;28;20138;-66
2022/01/09 10:09:07;;;;;;;192.45;162.05;;;;;;;15.43;33.01;92386.72;4969613;28;20102;-66
2022/01/09 10:11:43;;;;;;;196.73;165.13;;;;;;;15.45;32.97;92386.25;4969975;28;20054;-65
2022/01/09 10:14:17;;;;;;;195.88;162.85;;;;;;;15.45;32.94;92395.06;4969591;28;20042;-65
2022/01/09 10:17:12;;;;;;;190.35;160.52;;;;;;;15.45;32.94;92395.06;4971934;28;20088;-66
2022/01/09 10:19:40;;;;;;;197.18;165.27;;;;;;;15.43;32.96;92384.03;4971111;28;20134;-66
2022/01/09 10:22:06;;;;;;;191.95;160.95;;;;;;;15.38;33.03;92397.44;4969202;28;20042;-66
2022/01/09 10:24:32;;;;;;;195.95;164.48;;;;;;;15.39;32.86;92388.16;4970941;28;20057;-65
2022/01/09 10:26:57;;;;;;;194.50;160.75;;;;;;;15.40;32.95;92400.41;4966920;28;20077;-66
2022/01/09 10:29:30;;;;;;;197.80;165.82;;;;;;;15.40;32.95;92384.25;4968260;28;20050;-66
2022/01/09 10:31:55;;;;;;;189.15;158.38;;;;;;;15.42;33.05;92406.06;4972044;28;20047;-66
2022/01/09 10:34:20;;;;;;;198.57;166.63;;;;;;;15.40;32.95;92397.72;4971737;28;20077;-66
2022/01/09 10:36:51;;;;;;;190.02;159.48;;;;;;;15.41;32.90;92389.16;4965934;28;20053;-66
2022/01/09 10:39:30;;;;;;;192.55;162.18;;;;;;;15.42;33.02;92403.34;4969775;28;20070;-67
2022/01/09 10:41:59;;;;;;;192.93;161.30;;;;;;;15.39;33.18;92402.34;4968952;28;20046;-66
2022/01/09 10:44:31;;;;;;;192.05;160.20;;;;;;;15.37;32.91;92412.88;4969269;28;20054;-68
2022/01/09 10:47:12;;;;;;;192.95;161.77;;;;;;;15.36;32.83;92394.47;4969286;28;20057;-67
2022/01/09 10:49:49;;;;;;;196.15;164.25;;;;;;;15.36;32.65;92408.69;4969071;28;20061;-66
2022/01/09 10:52:27;;;;;;;195.50;162.82;;;;;;;15.33;32.82;92406.94;4973176;28;20055;-66
2022/01/09 10:54:55;;;;;;;193.65;161.43;;;;;;;15.37;33.00;92418.25;4970127;28;20453;-66
2022/01/09 10:57:24;;;;;;;190.88;158.88;;;;;;;15.34;32.73;92413.06;4968738;28;20059;-66
2022/01/09 10:59:50;;;;;;;194.27;162.10;;;;;;;15.35;32.83;92407.22;4970568;28;20042;-66
2022/01/09 11:02:16;;;;;;;190.07;156.38;;;;;;;15.38;32.93;92410.91;4970378;28;20058;-66
2022/01/09 11:04:47;;;;;;;188.82;157.15;;;;;;;15.39;32.72;92410.44;4966907;28;20065;-66